Time;durP1;ratioP1;P1;durP2;ratioP2;P2;SDS_P1;SDS_P2;PMS_P1;PMS_P2;Temp;Humidity;BMP_temperature;BMP_pressure;BME280_temperature;BME280_humidity;BME280_pressure;Samples;Min_cycle;Max_cycle;Signal;HPM_P1;HPM_P2
2023/12/26 00:01:45;;;;;;;0.60;0.40;;;;;;;;;;5029936;28;20399;-62
2023/12/26 00:04:11;;;;;;;1.17;0.40;;;;;;;;;;5030534;28;20403;-62
2023/12/26 00:06:36;;;;;;;1.52;0.30;;;;;;;;;;5030359;28;20969;-62
2023/12/26 00:09:02;;;;;;;0.83;0.20;;;;;;;;;;5029418;28;20418;-62
2023/12/26 00:11:30;;;;;;;0.90;0.40;;;;;;;;;;5030481;28;21143;-61
2023/12/26 00:13:55;;;;;;;0.77;0.40;;;;;;;;;;5030784;28;20490;-61
2023/12/26 00:16:20;;;;;;;0.50;0.40;;;;;;;;;;5029882;28;20506;-62
2023/12/26 00:18:46;;;;;;;0.60;0.40;;;;;;;;;;5029872;28;20464;-61
2023/12/26 00:21:11;;;;;;;0.50;0.40;;;;;;;;;;5030277;28;20608;-62
2023/12/26 00:23:37;;;;;;;0.90;0.40;;;;;;;;;;5030160;28;20962;-62
2023/12/26 00:26:04;;;;;;;1.03;0.40;;;;;;;;;;5029897;28;20403;-62
2023/12/26 00:28:29;;;;;;;0.50;0.40;;;;;;;;;;5029754;28;20403;-62
2023/12/26 00:30:54;;;;;;;0.93;0.40;;;;;;;;;;5029956;28;20531;-61
2023/12/26 00:33:20;;;;;;;1.33;0.50;;;;;;;;;;5029910;28;20395;-62
2023/12/26 00:35:45;;;;;;;2.08;0.50;;;;;;;;;;5030575;28;20751;-62
2023/12/26 00:38:10;;;;;;;0.70;0.40;;;;;;;;;;5028573;28;20910;-62
2023/12/26 00:40:39;;;;;;;1.73;0.40;;;;;;;;;;5030196;28;20387;-61
2023/12/26 00:43:04;;;;;;;1.17;0.40;;;;;;;;;;5029138;28;20407;-62
2023/12/26 00:45:30;;;;;;;1.30;0.60;;;;;;;;;;5030387;28;20731;-62
2023/12/26 00:47:57;;;;;;;1.30;0.50;;;;;;;;;;5024892;28;20931;-61
2023/12/26 00:50:22;;;;;;;1.15;0.45;;;;;;;;;;5029212;28;20411;-61
2023/12/26 00:52:48;;;;;;;0.73;0.37;;;;;;;;;;5030297;28;20391;-61
2023/12/26 00:55:13;;;;;;;1.37;0.50;;;;;;;;;;5029486;28;20924;-61
2023/12/26 00:57:38;;;;;;;1.13;0.40;;;;;;;;;;5028875;28;20898;-62
2023/12/26 01:00:05;;;;;;;1.60;0.40;;;;;;;;;;5028944;28;20403;-62
2023/12/26 01:02:31;;;;;;;0.95;0.50;;;;;;;;;;5029825;28;20395;-61
2023/12/26 01:04:56;;;;;;;1.87;0.40;;;;;;;;;;5029308;28;20406;-61
2023/12/26 01:07:21;;;;;;;1.23;0.33;;;;;;;;;;5028889;28;20411;-61
2023/12/26 01:09:47;;;;;;;2.00;0.40;;;;;;;;;;5028989;28;20399;-61
2023/12/26 01:12:13;;;;;;;1.13;0.40;;;;;;;;;;5028924;28;20492;-62
2023/12/26 01:14:40;;;;;;;1.02;0.40;;;;;;;;;;5029564;28;20407;-61
2023/12/26 01:17:05;;;;;;;0.98;0.43;;;;;;;;;;5020676;28;20463;-62
2023/12/26 01:19:30;;;;;;;1.95;0.40;;;;;;;;;;4993239;28;20494;-62
2023/12/26 01:21:56;;;;;;;1.50;0.40;;;;;;;;;;4995479;28;20397;-62
2023/12/26 01:24:21;;;;;;;2.00;0.60;;;;;;;;;;5000307;28;20408;-62
2023/12/26 01:26:46;;;;;;;1.57;0.50;;;;;;;;;;4999634;28;20407;-62
2023/12/26 01:29:12;;;;;;;1.60;0.60;;;;;;;;;;4999140;28;20412;-62
2023/12/26 01:31:37;;;;;;;2.17;0.60;;;;;;;;;;5000814;28;20393;-62
2023/12/26 01:34:03;;;;;;;2.22;0.70;;;;;;;;;;4999268;28;20407;-62
2023/12/26 01:36:28;;;;;;;3.37;0.87;;;;;;;;;;5000458;28;20898;-62
2023/12/26 01:38:53;;;;;;;1.93;0.87;;;;;;;;;;5026727;28;20403;-62
2023/12/26 01:41:19;;;;;;;2.00;0.80;;;;;;;;;;5008397;28;21080;-62
2023/12/26 01:43:44;;;;;;;3.30;1.08;;;;;;;;;;5009572;28;20828;-62
2023/12/26 01:46:10;;;;;;;2.73;0.97;;;;;;;;;;4999185;28;20405;-62
2023/12/26 01:48:35;;;;;;;2.63;1.10;;;;;;;;;;4994199;28;20432;-62
2023/12/26 01:51:01;;;;;;;2.70;1.00;;;;;;;;;;4999333;28;20466;-63
2023/12/26 01:53:27;;;;;;;2.03;0.90;;;;;;;;;;4999519;28;20392;-62
2023/12/26 01:55:52;;;;;;;2.77;0.97;;;;;;;;;;4999765;28;20431;-62
2023/12/26 01:58:17;;;;;;;2.67;0.90;;;;;;;;;;4998599;28;20781;-62
2023/12/26 02:00:43;;;;;;;2.83;0.90;;;;;;;;;;4996121;28;20401;-62
2023/12/26 02:03:08;;;;;;;2.60;0.90;;;;;;;;;;4991972;28;20955;-62
2023/12/26 02:05:33;;;;;;;2.00;1.00;;;;;;;;;;4992471;28;20586;-62
2023/12/26 02:07:59;;;;;;;2.60;0.80;;;;;;;;;;5014334;28;20407;-62
2023/12/26 02:10:24;;;;;;;2.70;0.90;;;;;;;;;;4999318;28;20405;-62
2023/12/26 02:12:49;;;;;;;3.30;0.87;;;;;;;;;;4999611;28;20487;-63
2023/12/26 02:15:15;;;;;;;2.80;0.80;;;;;;;;;;4998543;28;20413;-62
2023/12/26 02:17:41;;;;;;;1.80;0.68;;;;;;;;;;4999294;28;20416;-62
2023/12/26 02:20:07;;;;;;;3.37;0.83;;;;;;;;;;4997919;28;20939;-62
2023/12/26 02:22:33;;;;;;;2.17;0.73;;;;;;;;;;4997150;28;20392;-62
2023/12/26 02:24:58;;;;;;;2.27;0.80;;;;;;;;;;4992536;28;20401;-61
2023/12/26 02:27:24;;;;;;;1.40;0.60;;;;;;;;;;4991164;28;20840;-61
2023/12/26 02:29:50;;;;;;;2.65;0.70;;;;;;;;;;5012049;28;20437;-61
2023/12/26 02:32:17;;;;;;;2.00;0.67;;;;;;;;;;5018039;28;20906;-62
2023/12/26 02:34:43;;;;;;;3.07;1.00;;;;;;;;;;5018924;28;20398;-61
2023/12/26 02:37:08;;;;;;;2.40;0.73;;;;;;;;;;5006427;28;20475;-61
2023/12/26 02:39:34;;;;;;;1.70;0.70;;;;;;;;;;5013379;28;20385;-62
2023/12/26 02:41:59;;;;;;;2.85;0.73;;;;;;;;;;4999173;28;20412;-63
2023/12/26 02:44:25;;;;;;;2.50;0.70;;;;;;;;;;4998362;28;20392;-62
2023/12/26 02:46:50;;;;;;;1.10;0.40;;;;;;;;;;4992402;28;20401;-62
2023/12/26 02:49:15;;;;;;;1.13;0.40;;;;;;;;;;4986375;28;20661;-62
2023/12/26 02:51:41;;;;;;;2.33;0.60;;;;;;;;;;4991857;28;20439;-62
2023/12/26 02:54:06;;;;;;;2.53;0.40;;;;;;;;;;4997894;28;20405;-63
2023/12/26 02:56:31;;;;;;;2.33;0.47;;;;;;;;;;4999866;28;20412;-62
2023/12/26 02:58:57;;;;;;;2.27;0.53;;;;;;;;;;4998213;28;20401;-62
2023/12/26 03:01:22;;;;;;;2.70;0.70;;;;;;;;;;4998327;28;20403;-62
2023/12/26 03:03:47;;;;;;;1.97;0.60;;;;;;;;;;4999563;28;20910;-62
2023/12/26 03:06:13;;;;;;;2.67;0.57;;;;;;;;;;4999131;28;20404;-62
2023/12/26 03:08:38;;;;;;;3.47;0.70;;;;;;;;;;4994457;28;20424;-62
2023/12/26 03:11:03;;;;;;;2.03;0.60;;;;;;;;;;4990851;28;20480;-62
2023/12/26 03:13:29;;;;;;;3.67;0.77;;;;;;;;;;4991188;28;20436;-61
2023/12/26 03:15:54;;;;;;;3.13;0.75;;;;;;;;;;4995428;28;20411;-61
2023/12/26 03:18:20;;;;;;;3.27;0.60;;;;;;;;;;4997650;28;20508;-62
2023/12/26 03:20:45;;;;;;;3.17;0.70;;;;;;;;;;4998646;28;20415;-61
2023/12/26 03:23:10;;;;;;;3.97;0.80;;;;;;;;;;4998575;28;20401;-61
2023/12/26 03:25:36;;;;;;;4.22;0.70;;;;;;;;;;4998519;28;20472;-61
2023/12/26 03:28:01;;;;;;;3.93;0.80;;;;;;;;;;4998039;28;21431;-62
2023/12/26 03:30:26;;;;;;;5.07;0.77;;;;;;;;;;4999929;28;20419;-62
2023/12/26 03:32:52;;;;;;;5.10;1.10;;;;;;;;;;5000239;28;20413;-61
2023/12/26 03:35:17;;;;;;;3.87;1.03;;;;;;;;;;5024150;28;20406;-62
2023/12/26 03:37:42;;;;;;;5.18;1.05;;;;;;;;;;5030494;28;20407;-62
2023/12/26 03:40:08;;;;;;;6.77;1.17;;;;;;;;;;5030250;28;20431;-61
2023/12/26 03:42:34;;;;;;;6.93;1.50;;;;;;;;;;5031043;28;20873;-61
2023/12/26 03:44:59;;;;;;;5.88;1.23;;;;;;;;;;5031334;28;20438;-62
2023/12/26 03:47:25;;;;;;;7.13;1.37;;;;;;;;;;5030329;28;20398;-61
2023/12/26 03:49:50;;;;;;;6.67;1.30;;;;;;;;;;5025598;28;20414;-61
2023/12/26 03:52:15;;;;;;;7.93;1.38;;;;;;;;;;5037853;28;20443;-62
2023/12/26 03:54:41;;;;;;;6.73;1.30;;;;;;;;;;5032184;28;20427;-61
2023/12/26 03:57:07;;;;;;;8.00;1.55;;;;;;;;;;5030059;28;20395;-62
2023/12/26 03:59:32;;;;;;;7.10;1.40;;;;;;;;;;5029926;28;20407;-61
2023/12/26 04:01:58;;;;;;;7.15;1.38;;;;;;;;;;5030485;28;20410;-61
2023/12/26 04:04:23;;;;;;;9.03;1.40;;;;;;;;;;5030037;28;20410;-61
2023/12/26 04:06:48;;;;;;;5.73;1.20;;;;;;;;;;5020759;28;20397;-61
2023/12/26 04:09:14;;;;;;;6.50;1.57;;;;;;;;;;5008754;28;20428;-61
2023/12/26 04:11:41;;;;;;;6.45;1.33;;;;;;;;;;5011076;28;20795;-61
2023/12/26 04:14:06;;;;;;;5.50;1.07;;;;;;;;;;5021109;28;20794;-62
2023/12/26 04:16:32;;;;;;;8.05;1.55;;;;;;;;;;5030886;28;20951;-61
2023/12/26 04:18:58;;;;;;;6.55;1.20;;;;;;;;;;5029142;28;20480;-61
2023/12/26 04:21:23;;;;;;;6.73;1.37;;;;;;;;;;5029744;28;20399;-61
2023/12/26 04:23:48;;;;;;;6.37;1.23;;;;;;;;;;5030327;28;20739;-61
2023/12/26 04:26:14;;;;;;;6.27;1.50;;;;;;;;;;5029806;28;20966;-61
2023/12/26 04:28:39;;;;;;;7.17;1.40;;;;;;;;;;5029187;28;20541;-61
2023/12/26 04:31:04;;;;;;;4.23;1.07;;;;;;;;;;5029418;28;20435;-61
2023/12/26 04:33:30;;;;;;;6.23;1.30;;;;;;;;;;5029817;28;20414;-61
2023/12/26 04:35:55;;;;;;;5.53;1.10;;;;;;;;;;5029580;28;20486;-61
2023/12/26 04:38:21;;;;;;;6.03;1.10;;;;;;;;;;5028345;28;20893;-62
2023/12/26 04:40:46;;;;;;;5.77;1.23;;;;;;;;;;5029499;28;20403;-61
2023/12/26 04:43:12;;;;;;;5.53;1.20;;;;;;;;;;5028914;28;20406;-61
2023/12/26 04:45:38;;;;;;;4.97;1.20;;;;;;;;;;5029260;28;20402;-61
2023/12/26 04:48:05;;;;;;;7.47;1.08;;;;;;;;;;5024495;28;20399;-61
2023/12/26 04:50:30;;;;;;;6.07;1.20;;;;;;;;;;5029406;28;20882;-61
2023/12/26 04:52:56;;;;;;;6.82;1.17;;;;;;;;;;5029549;28;20418;-61
2023/12/26 04:55:21;;;;;;;6.80;1.23;;;;;;;;;;5029691;28;20435;-61
2023/12/26 04:57:46;;;;;;;5.53;1.30;;;;;;;;;;5028600;28;20482;-61
2023/12/26 05:00:12;;;;;;;5.35;1.00;;;;;;;;;;5028976;28;20430;-61
2023/12/26 05:02:38;;;;;;;4.90;1.10;;;;;;;;;;5029897;28;20462;-61
2023/12/26 05:05:03;;;;;;;4.85;1.20;;;;;;;;;;5028644;28;20894;-62
2023/12/26 05:07:29;;;;;;;5.30;1.13;;;;;;;;;;5029497;28;20889;-61
2023/12/26 05:09:54;;;;;;;6.33;1.00;;;;;;;;;;5028702;28;20482;-61
2023/12/26 05:12:19;;;;;;;5.22;1.10;;;;;;;;;;5028640;28;20382;-61
2023/12/26 05:14:45;;;;;;;5.37;1.10;;;;;;;;;;5029434;28;20391;-61
2023/12/26 05:17:10;;;;;;;6.40;1.00;;;;;;;;;;5029006;28;20415;-61
2023/12/26 05:19:35;;;;;;;5.53;1.00;;;;;;;;;;5026624;28;20415;-61
2023/12/26 05:22:01;;;;;;;6.60;1.10;;;;;;;;;;5027454;28;20833;-62
2023/12/26 05:24:26;;;;;;;7.55;1.38;;;;;;;;;;5028823;28;20483;-61
2023/12/26 05:26:51;;;;;;;7.17;1.23;;;;;;;;;;5029228;28;20761;-61
2023/12/26 05:29:17;;;;;;;6.93;1.17;;;;;;;;;;5028110;28;21013;-61
2023/12/26 05:31:42;;;;;;;8.27;1.50;;;;;;;;;;5028637;28;20396;-61
2023/12/26 05:34:07;;;;;;;7.93;1.23;;;;;;;;;;5028604;28;20387;-61
2023/12/26 05:36:33;;;;;;;6.72;1.27;;;;;;;;;;5029149;28;20469;-61
2023/12/26 05:38:58;;;;;;;5.63;1.10;;;;;;;;;;5027923;28;20778;-61
2023/12/26 05:41:25;;;;;;;8.70;1.50;;;;;;;;;;5028648;28;20855;-61
2023/12/26 05:43:50;;;;;;;7.88;1.67;;;;;;;;;;5029199;28;20399;-61
2023/12/26 05:46:17;;;;;;;7.23;1.30;;;;;;;;;;5027973;28;20793;-61
2023/12/26 05:48:42;;;;;;;7.82;1.40;;;;;;;;;;5023538;28;20510;-61
2023/12/26 05:51:07;;;;;;;8.90;1.53;;;;;;;;;;5028299;28;20478;-62
2023/12/26 05:53:33;;;;;;;8.97;1.30;;;;;;;;;;5028218;28;20403;-61
2023/12/26 05:55:58;;;;;;;7.77;1.53;;;;;;;;;;5028313;28;20398;-61
2023/12/26 05:58:24;;;;;;;7.87;1.47;;;;;;;;;;5020028;28;20423;-61
2023/12/26 06:00:49;;;;;;;7.90;1.27;;;;;;;;;;4993526;28;20456;-61
2023/12/26 06:03:15;;;;;;;9.77;1.40;;;;;;;;;;4993114;28;20507;-61
2023/12/26 06:05:40;;;;;;;7.85;1.25;;;;;;;;;;4999794;28;20776;-61
2023/12/26 06:08:05;;;;;;;7.30;1.20;;;;;;;;;;4998114;28;20401;-61
2023/12/26 06:10:31;;;;;;;6.53;1.27;;;;;;;;;;4997948;28;20902;-61
2023/12/26 06:12:56;;;;;;;8.40;1.60;;;;;;;;;;5000021;28;20428;-61
2023/12/26 06:15:21;;;;;;;5.93;1.20;;;;;;;;;;4998567;28;20447;-61
2023/12/26 06:17:47;;;;;;;7.70;1.40;;;;;;;;;;4998926;28;20408;-61
2023/12/26 06:20:14;;;;;;;9.17;1.97;;;;;;;;;;5011967;28;20900;-61
2023/12/26 06:22:39;;;;;;;8.00;1.33;;;;;;;;;;4995890;28;20982;-61
2023/12/26 06:25:05;;;;;;;7.00;1.20;;;;;;;;;;4991730;28;20449;-61
2023/12/26 06:27:30;;;;;;;9.37;1.50;;;;;;;;;;4998501;28;20523;-61
2023/12/26 06:29:55;;;;;;;9.63;1.52;;;;;;;;;;4998600;28;20520;-60
2023/12/26 06:32:20;;;;;;;6.90;1.33;;;;;;;;;;4998486;28;20408;-61
2023/12/26 06:34:46;;;;;;;8.03;1.33;;;;;;;;;;4999505;28;20396;-61
2023/12/26 06:37:11;;;;;;;6.27;1.20;;;;;;;;;;4998364;28;20405;-61
2023/12/26 06:39:38;;;;;;;8.30;1.40;;;;;;;;;;5017908;28;20402;-61
2023/12/26 06:42:03;;;;;;;9.77;1.45;;;;;;;;;;5014090;28;20434;-61
2023/12/26 06:44:29;;;;;;;12.38;1.80;;;;;;;;;;5003690;28;20495;-61
2023/12/26 06:46:54;;;;;;;10.97;1.93;;;;;;;;;;4992242;28;20476;-61
2023/12/26 06:49:19;;;;;;;7.47;1.33;;;;;;;;;;4989649;28;20447;-61
2023/12/26 06:51:46;;;;;;;8.20;1.40;;;;;;;;;;4999625;28;20543;-61
2023/12/26 06:54:11;;;;;;;6.97;1.35;;;;;;;;;;4999125;28;20411;-61
2023/12/26 06:56:36;;;;;;;9.13;1.70;;;;;;;;;;4999129;28;20385;-61
2023/12/26 06:59:02;;;;;;;8.90;2.00;;;;;;;;;;4997890;28;20888;-60
2023/12/26 07:01:28;;;;;;;9.57;1.83;;;;;;;;;;4999661;28;20483;-61
2023/12/26 07:03:53;;;;;;;8.68;1.60;;;;;;;;;;4997639;28;20412;-60
2023/12/26 07:06:18;;;;;;;8.47;1.53;;;;;;;;;;4995244;28;20403;-61
2023/12/26 07:08:44;;;;;;;8.47;1.50;;;;;;;;;;4994866;28;20420;-60
2023/12/26 07:11:09;;;;;;;11.43;1.53;;;;;;;;;;4996509;28;20417;-61
2023/12/26 07:13:34;;;;;;;8.93;1.45;;;;;;;;;;5002906;28;20504;-61
2023/12/26 07:16:00;;;;;;;7.00;1.30;;;;;;;;;;5003107;28;20780;-61
2023/12/26 07:18:25;;;;;;;11.27;1.80;;;;;;;;;;5001171;28;20404;-61
2023/12/26 07:20:50;;;;;;;9.10;2.00;;;;;;;;;;5002624;28;20412;-61
2023/12/26 07:23:16;;;;;;;9.80;1.67;;;;;;;;;;5002615;28;20914;-61
2023/12/26 07:25:42;;;;;;;9.73;1.60;;;;;;;;;;5003521;28;20927;-60
2023/12/26 07:28:08;;;;;;;7.38;1.60;;;;;;;;;;5018386;28;20787;-60
2023/12/26 07:30:33;;;;;;;12.02;2.13;;;;;;;;;;5031272;28;20427;-60
2023/12/26 07:32:58;;;;;;;9.10;1.70;;;;;;;;;;5030984;28;20399;-60
2023/12/26 07:35:25;;;;;;;8.63;1.60;;;;;;;;;;5030431;28;20414;-61
2023/12/26 07:37:50;;;;;;;8.15;1.70;;;;;;;;;;5030648;28;20423;-61
2023/12/26 07:40:16;;;;;;;7.97;1.58;;;;;;;;;;5028853;28;20442;-61
2023/12/26 07:42:41;;;;;;;7.67;1.40;;;;;;;;;;5031051;28;20716;-60
2023/12/26 07:45:06;;;;;;;9.07;2.47;;;;;;;;;;5029928;28;20911;-61
2023/12/26 07:47:32;;;;;;;8.70;2.90;;;;;;;;;;5030743;28;20403;-61
2023/12/26 07:49:57;;;;;;;9.57;2.40;;;;;;;;;;5031616;28;20414;-61
2023/12/26 07:52:23;;;;;;;9.03;2.37;;;;;;;;;;5029324;28;20537;-61
2023/12/26 07:54:48;;;;;;;23.88;11.32;;;;;;;;;;5030833;28;20403;-61
2023/12/26 07:57:14;;;;;;;33.30;19.80;;;;;;;;;;5030289;28;20449;-61
2023/12/26 07:59:39;;;;;;;10.10;3.50;;;;;;;;;;5029867;28;20406;-61
2023/12/26 08:02:05;;;;;;;8.70;3.03;;;;;;;;;;5030115;28;20399;-61
2023/12/26 08:04:30;;;;;;;11.85;3.95;;;;;;;;;;5030525;28;20399;-61
2023/12/26 08:06:55;;;;;;;9.80;2.67;;;;;;;;;;5030071;28;20406;-61
2023/12/26 08:09:21;;;;;;;10.13;3.23;;;;;;;;;;5029408;28;20458;-61
2023/12/26 08:11:46;;;;;;;8.50;2.30;;;;;;;;;;5041953;28;20780;-61
2023/12/26 08:14:17;;;;;;;10.37;1.90;;;;;;;;;;5046699;28;20712;-61
2023/12/26 08:16:42;;;;;;;9.70;1.60;;;;;;;;;;5036717;28;20459;-61
2023/12/26 08:19:08;;;;;;;11.07;2.30;;;;;;;;;;5032533;28;20912;-60
2023/12/26 08:21:33;;;;;;;8.23;1.70;;;;;;;;;;5032540;28;20399;-60
2023/12/26 08:23:58;;;;;;;9.53;2.00;;;;;;;;;;5029937;28;20403;-60
2023/12/26 08:26:30;;;;;;;8.40;1.50;;;;;;;;;;5029836;28;21051;-60
2023/12/26 08:28:56;;;;;;;8.63;1.70;;;;;;;;;;5027998;28;20433;-60
2023/12/26 08:31:21;;;;;;;9.27;1.90;;;;;;;;;;5029024;28;20866;-60
2023/12/26 08:33:46;;;;;;;9.23;1.80;;;;;;;;;;5030211;28;20945;-60
2023/12/26 08:36:12;;;;;;;8.90;1.70;;;;;;;;;;5029063;28;20905;-60
2023/12/26 08:38:39;;;;;;;7.97;1.70;;;;;;;;;;5028867;28;20455;-60
2023/12/26 08:41:05;;;;;;;8.90;1.55;;;;;;;;;;5029458;28;20418;-60
2023/12/26 08:43:32;;;;;;;8.52;1.50;;;;;;;;;;5030795;28;20403;-60
2023/12/26 08:45:57;;;;;;;10.60;1.80;;;;;;;;;;5029760;28;20488;-60
2023/12/26 08:48:23;;;;;;;8.82;1.70;;;;;;;;;;5023652;28;20399;-60
2023/12/26 08:50:48;;;;;;;8.07;1.63;;;;;;;;;;5029788;28;20423;-60
2023/12/26 08:53:13;;;;;;;7.77;1.80;;;;;;;;;;5028383;28;20402;-60
2023/12/26 08:55:39;;;;;;;6.47;1.60;;;;;;;;;;5029531;28;20407;-60
2023/12/26 08:58:04;;;;;;;8.80;1.63;;;;;;;;;;5028523;28;20414;-60
2023/12/26 09:00:30;;;;;;;8.80;1.65;;;;;;;;;;5029773;28;20395;-60
2023/12/26 09:02:55;;;;;;;8.53;1.57;;;;;;;;;;5029157;28;20395;-60
2023/12/26 09:05:20;;;;;;;9.50;1.70;;;;;;;;;;5029251;28;20789;-60
2023/12/26 09:07:46;;;;;;;7.85;1.70;;;;;;;;;;5029126;28;20781;-60
2023/12/26 09:10:11;;;;;;;6.63;1.70;;;;;;;;;;5028650;28;20422;-60
2023/12/26 09:12:36;;;;;;;9.13;1.63;;;;;;;;;;5029350;28;20490;-60
2023/12/26 09:15:02;;;;;;;16.73;7.43;;;;;;;;;;5029523;28;20425;-60
2023/12/26 09:17:27;;;;;;;10.10;2.95;;;;;;;;;;5028937;28;20485;-60
2023/12/26 09:19:53;;;;;;;9.33;1.97;;;;;;;;;;5028809;28;20911;-60
2023/12/26 09:22:18;;;;;;;17.83;9.13;;;;;;;;;;5029099;28;20441;-60
2023/12/26 09:24:43;;;;;;;14.23;7.67;;;;;;;;;;5028926;28;20753;-60
2023/12/26 09:27:09;;;;;;;9.77;3.90;;;;;;;;;;5027116;28;20434;-60
2023/12/26 09:29:34;;;;;;;7.87;2.13;;;;;;;;;;5027105;28;20461;-60
2023/12/26 09:32:00;;;;;;;11.90;2.40;;;;;;;;;;5028872;28;20403;-60
2023/12/26 09:34:25;;;;;;;9.55;2.67;;;;;;;;;;5028309;28;20480;-60
2023/12/26 09:36:50;;;;;;;13.23;2.67;;;;;;;;;;5029050;28;20407;-60
2023/12/26 09:39:16;;;;;;;9.87;3.93;;;;;;;;;;5026967;28;20391;-60
2023/12/26 09:41:41;;;;;;;9.23;1.97;;;;;;;;;;5028874;28;20789;-60
2023/12/26 09:44:06;;;;;;;8.93;1.90;;;;;;;;;;5028498;28;20448;-61
2023/12/26 09:46:32;;;;;;;11.60;1.90;;;;;;;;;;5051419;28;20466;-59
2023/12/26 09:48:57;;;;;;;8.00;2.00;;;;;;;;;;5032384;28;20493;-60
2023/12/26 09:51:22;;;;;;;8.67;1.90;;;;;;;;;;5030484;28;20395;-60
2023/12/26 09:53:51;;;;;;;9.27;2.07;;;;;;;;;;5027709;28;20399;-60
2023/12/26 09:56:16;;;;;;;9.55;1.67;;;;;;;;;;5027692;28;20396;-60
2023/12/26 09:58:43;;;;;;;9.10;1.80;;;;;;;;;;5031179;28;20896;-60
2023/12/26 10:01:11;;;;;;;10.70;1.70;;;;;;;;;;5036127;28;20492;-61
2023/12/26 10:03:36;;;;;;;8.57;1.90;;;;;;;;;;5039131;28;20455;-60
2023/12/26 10:06:02;;;;;;;9.40;2.05;;;;;;;;;;5036956;28;20403;-61
2023/12/26 10:08:27;;;;;;;6.63;1.77;;;;;;;;;;5035039;28;20397;-60
2023/12/26 10:10:52;;;;;;;6.70;1.57;;;;;;;;;;5039037;28;20943;-60
2023/12/26 10:13:18;;;;;;;8.40;1.80;;;;;;;;;;5035632;28;20754;-60
2023/12/26 10:15:43;;;;;;;8.83;2.07;;;;;;;;;;5028463;28;20901;-60
2023/12/26 10:18:10;;;;;;;9.43;2.00;;;;;;;;;;5035051;28;20968;-60
2023/12/26 10:20:36;;;;;;;10.15;2.10;;;;;;;;;;5027729;28;20430;-60
2023/12/26 10:23:03;;;;;;;9.53;2.13;;;;;;;;;;5030107;28;20893;-61
2023/12/26 10:25:29;;;;;;;9.57;2.13;;;;;;;;;;5036222;28;20393;-60
2023/12/26 10:27:56;;;;;;;10.13;2.00;;;;;;;;;;5038400;28;20531;-60
2023/12/26 10:30:21;;;;;;;9.40;1.90;;;;;;;;;;5046136;28;20394;-60
2023/12/26 10:32:47;;;;;;;8.17;1.97;;;;;;;;;;5026986;28;20448;-60
2023/12/26 10:35:14;;;;;;;10.05;2.20;;;;;;;;;;5025809;28;20929;-61
2023/12/26 10:37:39;;;;;;;10.20;2.13;;;;;;;;;;5033609;28;20744;-60
2023/12/26 10:40:05;;;;;;;9.17;1.87;;;;;;;;;;5028272;28;20406;-61
2023/12/26 10:42:31;;;;;;;9.27;1.80;;;;;;;;;;5027844;28;20424;-60
2023/12/26 10:44:58;;;;;;;8.50;1.60;;;;;;;;;;5019639;28;20893;-61
2023/12/26 10:47:23;;;;;;;8.32;1.60;;;;;;;;;;5027384;28;20881;-61
2023/12/26 10:49:48;;;;;;;8.67;1.90;;;;;;;;;;5022291;28;20639;-61
2023/12/26 10:52:14;;;;;;;8.00;1.80;;;;;;;;;;5027741;28;20403;-61
2023/12/26 10:54:39;;;;;;;10.10;2.37;;;;;;;;;;5026581;28;20391;-61
2023/12/26 10:57:05;;;;;;;10.73;2.30;;;;;;;;;;5025296;28;20885;-62
2023/12/26 13:53:08;;;;;;;9.77;1.80;;;;;;;;;;5014305;28;20456;-58
2023/12/26 13:55:34;;;;;;;9.27;2.00;;;;;;;;;;5019631;28;20895;-57
2023/12/26 13:57:59;;;;;;;7.83;1.67;;;;;;;;;;5019953;28;20470;-57
2023/12/26 14:00:25;;;;;;;6.93;1.37;;;;;;;;;;5019835;28;20398;-57
2023/12/26 14:02:50;;;;;;;7.03;1.40;;;;;;;;;;5021101;28;20417;-57
2023/12/26 14:05:15;;;;;;;7.97;1.80;;;;;;;;;;5020788;28;20826;-58
2023/12/26 14:07:44;;;;;;;8.02;1.60;;;;;;;;;;5020607;28;20407;-57
2023/12/26 14:10:09;;;;;;;7.03;1.40;;;;;;;;;;5017025;28;20438;-58
2023/12/26 14:12:34;;;;;;;8.00;1.50;;;;;;;;;;5013225;28;20470;-57
2023/12/26 14:15:00;;;;;;;6.47;1.88;;;;;;;;;;5012836;28;20691;-57
2023/12/26 14:17:25;;;;;;;6.17;1.10;;;;;;;;;;5016497;28;20814;-57
2023/12/26 14:19:50;;;;;;;6.73;1.40;;;;;;;;;;5020150;28;20906;-58
2023/12/26 14:22:16;;;;;;;6.60;1.50;;;;;;;;;;5020126;28;20951;-57
2023/12/26 14:24:41;;;;;;;8.43;1.50;;;;;;;;;;5020850;28;20427;-57
2023/12/26 14:27:08;;;;;;;7.65;1.40;;;;;;;;;;5020290;28;20395;-57
2023/12/26 14:29:52;;;;;;;7.97;1.58;;;;;;;;;;5024416;28;20394;-57
2023/12/26 14:32:36;;;;;;;6.18;1.65;;;;;;;;;;5025857;28;20762;-57
2023/12/26 14:35:20;;;;;;;6.43;1.50;;;;;;;;;;5025387;28;20411;-58
2023/12/26 14:38:04;;;;;;;8.65;1.70;;;;;;;;;;5028648;28;20395;-57
2023/12/26 14:40:48;;;;;;;7.22;1.40;;;;;;;;;;5010215;28;20406;-57
2023/12/26 14:43:32;;;;;;;7.85;1.77;;;;;;;;;;5045126;28;20727;-57
2023/12/26 14:46:16;;;;;;;6.93;1.60;;;;;;;;;;5006540;28;20828;-57
2023/12/26 14:49:00;;;;;;;8.35;1.63;;;;;;;;;;5003011;28;20621;-57
2023/12/26 14:51:44;;;;;;;6.43;1.60;;;;;;;;;;5025216;28;20494;-57
2023/12/26 14:54:29;;;;;;;6.35;1.60;;;;;;;;;;5025641;28;20403;-58
2023/12/26 14:57:14;;;;;;;6.97;1.87;;;;;;;;;;5017000;28;20531;-57
2023/12/26 14:59:57;;;;;;;7.00;1.50;;;;;;;;;;5017540;28;20395;-57
2023/12/26 15:02:24;;;;;;;7.00;1.75;;;;;;;;;;5012980;28;20971;-57
2023/12/26 15:04:50;;;;;;;7.47;1.60;;;;;;;;;;5018692;28;20460;-57
2023/12/26 15:07:16;;;;;;;7.63;1.77;;;;;;;;;;5020019;28;20399;-57
2023/12/26 15:09:41;;;;;;;9.52;2.35;;;;;;;;;;5018531;28;20414;-57
2023/12/26 15:12:07;;;;;;;5.47;1.53;;;;;;;;;;5019676;28;20403;-57
2023/12/26 15:14:32;;;;;;;7.13;2.00;;;;;;;;;;5019911;28;20492;-58
2023/12/26 15:16:57;;;;;;;6.73;1.80;;;;;;;;;;5019187;28;20414;-57
2023/12/26 15:19:23;;;;;;;8.23;1.40;;;;;;;;;;5018768;28;20502;-58
2023/12/26 15:21:48;;;;;;;7.38;1.48;;;;;;;;;;5020245;28;20785;-57
2023/12/26 15:24:14;;;;;;;7.67;1.80;;;;;;;;;;5013405;28;20410;-57
2023/12/26 15:26:39;;;;;;;8.37;1.77;;;;;;;;;;5015852;28;20478;-57
2023/12/26 15:29:05;;;;;;;6.97;1.30;;;;;;;;;;5017343;28;20493;-57
2023/12/26 15:31:30;;;;;;;6.63;1.50;;;;;;;;;;5035627;28;20485;-57
2023/12/26 15:33:55;;;;;;;5.90;1.43;;;;;;;;;;5023603;28;20503;-57
2023/12/26 15:36:21;;;;;;;6.40;1.60;;;;;;;;;;5022946;28;20508;-57
2023/12/26 15:38:47;;;;;;;6.10;1.40;;;;;;;;;;5012939;28;20438;-57
2023/12/26 15:41:12;;;;;;;6.70;1.55;;;;;;;;;;5023222;28;20898;-57
2023/12/26 15:43:38;;;;;;;6.50;1.60;;;;;;;;;;5022832;28;20406;-57
2023/12/26 15:46:03;;;;;;;7.43;1.50;;;;;;;;;;5019477;28;20751;-58
2023/12/26 15:48:29;;;;;;;7.27;1.60;;;;;;;;;;5010558;28;20388;-58
2023/12/26 15:50:54;;;;;;;6.20;1.40;;;;;;;;;;5016296;28;20403;-58
2023/12/26 15:53:19;;;;;;;8.03;1.80;;;;;;;;;;5018064;28;20497;-58
2023/12/26 15:55:45;;;;;;;7.23;1.53;;;;;;;;;;5023856;28;20502;-58
2023/12/26 15:58:12;;;;;;;5.87;1.30;;;;;;;;;;5021984;28;20441;-58
2023/12/26 16:00:38;;;;;;;11.23;1.67;;;;;;;;;;5022847;28;20464;-58
2023/12/26 16:03:04;;;;;;;6.75;1.48;;;;;;;;;;5022728;28;20825;-58
2023/12/26 16:05:29;;;;;;;8.73;1.63;;;;;;;;;;5023254;28;20401;-58
2023/12/26 16:07:55;;;;;;;7.73;2.00;;;;;;;;;;5020271;28;20411;-58
2023/12/26 16:10:23;;;;;;;5.90;1.50;;;;;;;;;;5014456;28;20410;-58
2023/12/26 16:12:48;;;;;;;7.80;1.80;;;;;;;;;;5015637;28;20825;-58
2023/12/26 16:15:14;;;;;;;6.50;1.30;;;;;;;;;;5017300;28;20871;-58
2023/12/26 16:17:40;;;;;;;7.55;1.25;;;;;;;;;;5023223;28;20399;-58
2023/12/26 16:20:05;;;;;;;5.95;1.13;;;;;;;;;;5021393;28;20415;-58
2023/12/26 16:22:31;;;;;;;7.13;1.30;;;;;;;;;;5022237;28;20397;-58
2023/12/26 16:24:56;;;;;;;6.20;1.20;;;;;;;;;;5023214;28;20403;-58
2023/12/26 16:27:23;;;;;;;10.77;5.38;;;;;;;;;;5021290;28;20403;-58
2023/12/26 16:29:49;;;;;;;4.93;0.90;;;;;;;;;;5021787;28;20407;-58
2023/12/26 16:32:14;;;;;;;4.50;1.00;;;;;;;;;;5016212;28;20525;-58
2023/12/26 16:34:40;;;;;;;7.23;1.20;;;;;;;;;;5015099;28;20402;-58
2023/12/26 16:37:05;;;;;;;5.55;1.05;;;;;;;;;;5015423;28;20395;-58
2023/12/26 16:39:30;;;;;;;5.70;1.30;;;;;;;;;;5021049;28;20391;-58
2023/12/26 16:41:58;;;;;;;5.53;1.20;;;;;;;;;;5021816;28;20402;-58
2023/12/26 16:44:24;;;;;;;5.00;1.35;;;;;;;;;;5022452;28;20491;-58
2023/12/26 16:46:49;;;;;;;7.03;1.40;;;;;;;;;;5021631;28;20925;-58
2023/12/26 16:49:14;;;;;;;5.33;1.30;;;;;;;;;;5017148;28;20423;-58
2023/12/26 16:51:40;;;;;;;7.30;1.60;;;;;;;;;;5021827;28;21022;-58
2023/12/26 16:54:07;;;;;;;5.57;1.45;;;;;;;;;;5017668;28;20407;-59
2023/12/26 16:56:33;;;;;;;4.97;1.20;;;;;;;;;;5014665;28;20569;-58
2023/12/26 16:58:58;;;;;;;5.50;1.33;;;;;;;;;;5023293;28;20864;-58
2023/12/26 17:01:23;;;;;;;4.63;1.20;;;;;;;;;;5025982;28;20785;-58
2023/12/26 17:03:48;;;;;;;5.00;1.40;;;;;;;;;;5027457;28;20541;-59
2023/12/26 17:06:14;;;;;;;5.57;1.40;;;;;;;;;;5027585;28;20437;-58
2023/12/26 17:08:39;;;;;;;5.50;1.23;;;;;;;;;;5027777;28;20556;-58
2023/12/26 17:11:09;;;;;;;5.90;1.30;;;;;;;;;;5026656;28;20421;-59
2023/12/26 17:13:34;;;;;;;6.15;1.40;;;;;;;;;;5027790;28;20675;-58
2023/12/26 17:15:59;;;;;;;6.27;1.30;;;;;;;;;;5027079;28;21235;-58
2023/12/26 17:18:25;;;;;;;6.27;1.63;;;;;;;;;;5027062;28;20387;-58
2023/12/26 17:20:50;;;;;;;6.00;1.60;;;;;;;;;;5026956;28;20739;-58
2023/12/26 17:23:15;;;;;;;5.17;1.30;;;;;;;;;;5026541;28;20458;-59
2023/12/26 17:25:41;;;;;;;8.02;1.35;;;;;;;;;;5025848;28;20418;-58
2023/12/26 17:28:09;;;;;;;4.03;1.10;;;;;;;;;;5026997;28;20797;-59